sensor_id;sensor_type;location;lat;lon;timestamp;temperature;humidity
1225;DHT22;602;48.000;7.840;2023-03-13T00:01:02;14.40;99.90
1225;DHT22;602;48.000;7.840;2023-03-13T00:03:35;14.40;99.90
1225;DHT22;602;48.000;7.840;2023-03-13T00:06:02;14.50;99.90
1225;DHT22;602;48.000;7.840;2023-03-13T00:08:29;14.40;99.90
1225;DHT22;602;48.000;7.840;2023-03-13T00:10:56;14.40;99.90
1225;DHT22;602;48.000;7.840;2023-03-13T00:13:24;14.40;99.90
1225;DHT22;602;48.000;7.840;2023-03-13T00:15:59;14.40;99.90
1225;DHT22;602;48.000;7.840;2023-03-13T00:18:26;14.40;99.90
1225;DHT22;602;48.000;7.840;2023-03-13T00:20:57;14.40;99.90
1225;DHT22;602;48.000;7.840;2023-03-13T00:23:24;14.40;99.90
1225;DHT22;602;48.000;7.840;2023-03-13T00:25:55;14.40;99.90
1225;DHT22;602;48.000;7.840;2023-03-13T00:28:24;14.40;99.90
1225;DHT22;602;48.000;7.840;2023-03-13T00:30:51;14.40;99.90
1225;DHT22;602;48.000;7.840;2023-03-13T00:33:17;14.50;99.90
1225;DHT22;602;48.000;7.840;2023-03-13T00:35:44;14.50;99.90
1225;DHT22;602;48.000;7.840;2023-03-13T00:38:11;14.40;99.90
1225;DHT22;602;48.000;7.840;2023-03-13T00:40:38;14.40;99.90
1225;DHT22;602;48.000;7.840;2023-03-13T00:43:05;14.50;99.90
1225;DHT22;602;48.000;7.840;2023-03-13T00:45:33;14.50;99.90
1225;DHT22;602;48.000;7.840;2023-03-13T00:48:00;14.60;99.90
1225;DHT22;602;48.000;7.840;2023-03-13T00:50:27;14.60;99.90
1225;DHT22;602;48.000;7.840;2023-03-13T00:52:54;14.60;99.90
1225;DHT22;602;48.000;7.840;2023-03-13T00:55:21;14.50;99.90
1225;DHT22;602;48.000;7.840;2023-03-13T00:57:48;14.60;99.90
1225;DHT22;602;48.000;7.840;2023-03-13T01:00:15;14.60;99.90
1225;DHT22;602;48.000;7.840;2023-03-13T01:02:44;14.70;99.90
1225;DHT22;602;48.000;7.840;2023-03-13T01:05:10;14.60;99.90
1225;DHT22;602;48.000;7.840;2023-03-13T01:07:38;14.70;99.90
1225;DHT22;602;48.000;7.840;2023-03-13T01:10:06;14.70;99.90
1225;DHT22;602;48.000;7.840;2023-03-13T01:12:33;14.70;99.90
1225;DHT22;602;48.000;7.840;2023-03-13T01:15:00;14.60;99.90
1225;DHT22;602;48.000;7.840;2023-03-13T01:17:26;14.60;99.90
1225;DHT22;602;48.000;7.840;2023-03-13T01:19:56;14.70;99.90
1225;DHT22;602;48.000;7.840;2023-03-13T01:22:23;14.60;99.90
1225;DHT22;602;48.000;7.840;2023-03-13T01:24:50;14.60;99.90
1225;DHT22;602;48.000;7.840;2023-03-13T01:27:18;14.70;99.90
1225;DHT22;602;48.000;7.840;2023-03-13T01:29:45;14.70;99.90
1225;DHT22;602;48.000;7.840;2023-03-13T01:32:12;14.70;99.90
1225;DHT22;602;48.000;7.840;2023-03-13T01:34:39;14.50;99.90
1225;DHT22;602;48.000;7.840;2023-03-13T01:37:07;14.50;99.90
1225;DHT22;602;48.000;7.840;2023-03-13T01:39:34;14.50;99.90
1225;DHT22;602;48.000;7.840;2023-03-13T01:42:02;14.50;99.90
1225;DHT22;602;48.000;7.840;2023-03-13T01:44:29;14.30;99.90
1225;DHT22;602;48.000;7.840;2023-03-13T01:46:56;14.30;99.90
1225;DHT22;602;48.000;7.840;2023-03-13T01:49:24;14.30;99.90
1225;DHT22;602;48.000;7.840;2023-03-13T01:51:55;14.20;99.90
1225;DHT22;602;48.000;7.840;2023-03-13T01:54:28;14.20;99.90
1225;DHT22;602;48.000;7.840;2023-03-13T01:56:59;14.20;99.90
1225;DHT22;602;48.000;7.840;2023-03-13T01:59:29;14.20;99.90
1225;DHT22;602;48.000;7.840;2023-03-13T02:01:59;14.10;99.90
1225;DHT22;602;48.000;7.840;2023-03-13T02:04:30;14.10;99.90
1225;DHT22;602;48.000;7.840;2023-03-13T02:07:02;14.00;99.90
1225;DHT22;602;48.000;7.840;2023-03-13T02:09:32;14.00;99.90
1225;DHT22;602;48.000;7.840;2023-03-13T02:12:03;13.90;99.90
1225;DHT22;602;48.000;7.840;2023-03-13T02:14:34;13.90;99.90
1225;DHT22;602;48.000;7.840;2023-03-13T02:17:02;13.90;99.90
1225;DHT22;602;48.000;7.840;2023-03-13T02:19:34;13.90;99.90
1225;DHT22;602;48.000;7.840;2023-03-13T02:22:10;13.90;99.90
1225;DHT22;602;48.000;7.840;2023-03-13T02:24:45;13.90;99.90
1225;DHT22;602;48.000;7.840;2023-03-13T02:27:18;13.80;99.90
1225;DHT22;602;48.000;7.840;2023-03-13T02:29:44;13.90;99.90
1225;DHT22;602;48.000;7.840;2023-03-13T02:32:12;13.80;99.90
1225;DHT22;602;48.000;7.840;2023-03-13T02:34:40;13.80;99.90
1225;DHT22;602;48.000;7.840;2023-03-13T02:37:09;13.90;99.90
1225;DHT22;602;48.000;7.840;2023-03-13T02:39:40;13.90;99.90
1225;DHT22;602;48.000;7.840;2023-03-13T02:42:11;13.90;99.90
1225;DHT22;602;48.000;7.840;2023-03-13T02:44:40;13.90;99.90
1225;DHT22;602;48.000;7.840;2023-03-13T02:47:09;13.90;99.90
1225;DHT22;602;48.000;7.840;2023-03-13T02:49:36;13.90;99.90
1225;DHT22;602;48.000;7.840;2023-03-13T02:52:11;13.90;99.90
1225;DHT22;602;48.000;7.840;2023-03-13T02:54:39;13.90;99.90
1225;DHT22;602;48.000;7.840;2023-03-13T02:57:06;13.80;99.90
1225;DHT22;602;48.000;7.840;2023-03-13T02:59:33;13.80;99.90
1225;DHT22;602;48.000;7.840;2023-03-13T03:02:02;13.90;99.90
1225;DHT22;602;48.000;7.840;2023-03-13T03:04:29;13.90;99.90
1225;DHT22;602;48.000;7.840;2023-03-13T03:06:56;13.80;99.90
1225;DHT22;602;48.000;7.840;2023-03-13T03:09:23;13.80;99.90
1225;DHT22;602;48.000;7.840;2023-03-13T03:11:50;13.70;99.90
1225;DHT22;602;48.000;7.840;2023-03-13T03:14:17;13.70;99.90
1225;DHT22;602;48.000;7.840;2023-03-13T03:16:44;13.80;99.90
1225;DHT22;602;48.000;7.840;2023-03-13T03:19:12;13.70;99.90
1225;DHT22;602;48.000;7.840;2023-03-13T03:21:39;13.70;99.90
1225;DHT22;602;48.000;7.840;2023-03-13T03:24:07;13.60;99.90
1225;DHT22;602;48.000;7.840;2023-03-13T03:26:34;13.60;99.90
1225;DHT22;602;48.000;7.840;2023-03-13T03:29:01;13.60;99.90
1225;DHT22;602;48.000;7.840;2023-03-13T03:31:29;13.60;99.90
1225;DHT22;602;48.000;7.840;2023-03-13T03:33:56;13.60;99.90
1225;DHT22;602;48.000;7.840;2023-03-13T03:36:25;13.50;99.90
1225;DHT22;602;48.000;7.840;2023-03-13T03:38:52;13.60;99.90
1225;DHT22;602;48.000;7.840;2023-03-13T03:41:20;13.60;99.90
1225;DHT22;602;48.000;7.840;2023-03-13T03:43:47;13.60;99.90
1225;DHT22;602;48.000;7.840;2023-03-13T03:46:14;13.50;99.90
1225;DHT22;602;48.000;7.840;2023-03-13T03:48:41;13.50;99.90
1225;DHT22;602;48.000;7.840;2023-03-13T03:51:08;13.40;99.90
1225;DHT22;602;48.000;7.840;2023-03-13T03:53:37;13.40;99.90
1225;DHT22;602;48.000;7.840;2023-03-13T03:56:04;13.30;99.90
1225;DHT22;602;48.000;7.840;2023-03-13T03:58:31;13.30;99.90
1225;DHT22;602;48.000;7.840;2023-03-13T04:00:58;13.30;99.90
1225;DHT22;602;48.000;7.840;2023-03-13T04:03:25;13.30;99.90
1225;DHT22;602;48.000;7.840;2023-03-13T04:05:52;13.20;99.90
1225;DHT22;602;48.000;7.840;2023-03-13T04:08:19;13.20;99.90
1225;DHT22;602;48.000;7.840;2023-03-13T04:10:47;13.10;99.90
1225;DHT22;602;48.000;7.840;2023-03-13T04:13:14;13.10;99.90
1225;DHT22;602;48.000;7.840;2023-03-13T04:15:42;13.10;99.90
1225;DHT22;602;48.000;7.840;2023-03-13T04:18:09;13.10;99.90
1225;DHT22;602;48.000;7.840;2023-03-13T04:20:35;13.20;99.90
1225;DHT22;602;48.000;7.840;2023-03-13T04:23:03;13.30;99.90
1225;DHT22;602;48.000;7.840;2023-03-13T04:25:29;13.30;99.90
1225;DHT22;602;48.000;7.840;2023-03-13T04:27:58;13.20;99.90
1225;DHT22;602;48.000;7.840;2023-03-13T04:30:25;13.20;99.90
1225;DHT22;602;48.000;7.840;2023-03-13T04:32:51;13.20;99.90
1225;DHT22;602;48.000;7.840;2023-03-13T04:35:18;13.30;99.90
1225;DHT22;602;48.000;7.840;2023-03-13T04:37:46;13.30;99.90
1225;DHT22;602;48.000;7.840;2023-03-13T04:40:12;13.30;99.90
1225;DHT22;602;48.000;7.840;2023-03-13T04:42:39;13.30;99.90
1225;DHT22;602;48.000;7.840;2023-03-13T04:45:10;13.30;99.90
1225;DHT22;602;48.000;7.840;2023-03-13T04:47:37;13.40;99.90
1225;DHT22;602;48.000;7.840;2023-03-13T04:50:04;13.40;99.90
1225;DHT22;602;48.000;7.840;2023-03-13T04:52:31;13.40;99.90
1225;DHT22;602;48.000;7.840;2023-03-13T04:54:58;13.40;99.90
1225;DHT22;602;48.000;7.840;2023-03-13T04:57:25;13.40;99.90
1225;DHT22;602;48.000;7.840;2023-03-13T04:59:52;13.40;99.90
1225;DHT22;602;48.000;7.840;2023-03-13T05:02:20;13.30;99.90
1225;DHT22;602;48.000;7.840;2023-03-13T05:04:47;13.30;99.90
1225;DHT22;602;48.000;7.840;2023-03-13T05:07:14;13.30;99.90
1225;DHT22;602;48.000;7.840;2023-03-13T05:09:40;13.20;99.90
1225;DHT22;602;48.000;7.840;2023-03-13T05:12:08;13.20;99.90
1225;DHT22;602;48.000;7.840;2023-03-13T05:14:35;13.10;99.90
1225;DHT22;602;48.000;7.840;2023-03-13T05:17:02;13.00;99.90
1225;DHT22;602;48.000;7.840;2023-03-13T05:19:30;13.00;99.90
1225;DHT22;602;48.000;7.840;2023-03-13T05:21:57;13.00;99.90
1225;DHT22;602;48.000;7.840;2023-03-13T05:24:23;12.90;99.90
1225;DHT22;602;48.000;7.840;2023-03-13T05:26:50;12.80;99.90
1225;DHT22;602;48.000;7.840;2023-03-13T05:29:17;12.80;99.90
1225;DHT22;602;48.000;7.840;2023-03-13T05:31:44;12.80;99.90
1225;DHT22;602;48.000;7.840;2023-03-13T05:34:11;12.80;99.90
1225;DHT22;602;48.000;7.840;2023-03-13T05:36:39;12.70;99.90
1225;DHT22;602;48.000;7.840;2023-03-13T05:39:06;12.70;99.90
1225;DHT22;602;48.000;7.840;2023-03-13T05:41:33;12.70;99.90
1225;DHT22;602;48.000;7.840;2023-03-13T05:44:00;12.60;99.90
1225;DHT22;602;48.000;7.840;2023-03-13T05:46:27;12.60;99.90
1225;DHT22;602;48.000;7.840;2023-03-13T05:48:54;12.60;99.90
1225;DHT22;602;48.000;7.840;2023-03-13T05:51:21;12.60;99.90
1225;DHT22;602;48.000;7.840;2023-03-13T05:53:49;12.60;99.90
1225;DHT22;602;48.000;7.840;2023-03-13T05:56:16;12.70;99.90
1225;DHT22;602;48.000;7.840;2023-03-13T05:58:42;12.70;99.90
1225;DHT22;602;48.000;7.840;2023-03-13T06:01:11;12.70;99.90
1225;DHT22;602;48.000;7.840;2023-03-13T06:03:39;12.70;99.90
1225;DHT22;602;48.000;7.840;2023-03-13T06:06:05;12.80;99.90
1225;DHT22;602;48.000;7.840;2023-03-13T06:08:32;12.80;99.90
1225;DHT22;602;48.000;7.840;2023-03-13T06:11:01;12.90;99.90
1225;DHT22;602;48.000;7.840;2023-03-13T06:13:28;12.90;99.90
1225;DHT22;602;48.000;7.840;2023-03-13T06:15:56;12.90;99.90
1225;DHT22;602;48.000;7.840;2023-03-13T06:18:24;12.90;99.90
1225;DHT22;602;48.000;7.840;2023-03-13T06:20:56;13.00;99.90
1225;DHT22;602;48.000;7.840;2023-03-13T06:23:23;13.00;99.90
1225;DHT22;602;48.000;7.840;2023-03-13T06:25:50;13.00;99.90
1225;DHT22;602;48.000;7.840;2023-03-13T06:30:46;13.20;99.90
1225;DHT22;602;48.000;7.840;2023-03-13T06:33:13;13.20;99.90
1225;DHT22;602;48.000;7.840;2023-03-13T06:35:41;13.30;99.90
1225;DHT22;602;48.000;7.840;2023-03-13T06:38:08;13.30;99.90
1225;DHT22;602;48.000;7.840;2023-03-13T06:40:35;13.40;99.90
1225;DHT22;602;48.000;7.840;2023-03-13T06:43:02;13.40;99.90
1225;DHT22;602;48.000;7.840;2023-03-13T06:45:29;13.40;99.90
1225;DHT22;602;48.000;7.840;2023-03-13T06:47:57;13.40;99.90
1225;DHT22;602;48.000;7.840;2023-03-13T06:50:24;13.50;99.90
1225;DHT22;602;48.000;7.840;2023-03-13T06:52:51;13.50;99.90
1225;DHT22;602;48.000;7.840;2023-03-13T06:55:18;13.60;99.90
1225;DHT22;602;48.000;7.840;2023-03-13T06:57:49;13.60;99.90
1225;DHT22;602;48.000;7.840;2023-03-13T07:00:16;13.60;99.90
1225;DHT22;602;48.000;7.840;2023-03-13T07:02:43;13.70;99.90
1225;DHT22;602;48.000;7.840;2023-03-13T07:05:11;13.60;99.90
1225;DHT22;602;48.000;7.840;2023-03-13T07:07:39;13.70;99.90
1225;DHT22;602;48.000;7.840;2023-03-13T07:10:07;13.70;99.90
1225;DHT22;602;48.000;7.840;2023-03-13T07:12:35;13.80;99.90
1225;DHT22;602;48.000;7.840;2023-03-13T07:15:02;13.80;99.90
1225;DHT22;602;48.000;7.840;2023-03-13T07:17:29;13.80;99.90
1225;DHT22;602;48.000;7.840;2023-03-13T07:19:56;13.90;99.90
1225;DHT22;602;48.000;7.840;2023-03-13T07:22:24;14.00;99.90
1225;DHT22;602;48.000;7.840;2023-03-13T07:24:51;14.00;99.90
1225;DHT22;602;48.000;7.840;2023-03-13T07:27:17;14.10;99.90
1225;DHT22;602;48.000;7.840;2023-03-13T07:29:45;14.20;99.90
1225;DHT22;602;48.000;7.840;2023-03-13T07:32:12;14.30;99.90
1225;DHT22;602;48.000;7.840;2023-03-13T07:34:39;14.30;99.90
1225;DHT22;602;48.000;7.840;2023-03-13T07:37:09;14.40;99.90
1225;DHT22;602;48.000;7.840;2023-03-13T07:39:37;14.40;99.90
1225;DHT22;602;48.000;7.840;2023-03-13T07:42:04;14.40;99.90
1225;DHT22;602;48.000;7.840;2023-03-13T07:44:32;14.50;99.90
1225;DHT22;602;48.000;7.840;2023-03-13T07:46:59;14.60;99.90
1225;DHT22;602;48.000;7.840;2023-03-13T07:49:26;14.70;99.90
1225;DHT22;602;48.000;7.840;2023-03-13T07:51:53;14.90;99.90
1225;DHT22;602;48.000;7.840;2023-03-13T07:54:22;15.00;99.90
1225;DHT22;602;48.000;7.840;2023-03-13T07:56:50;15.00;99.90
1225;DHT22;602;48.000;7.840;2023-03-13T07:59:17;15.10;99.90
1225;DHT22;602;48.000;7.840;2023-03-13T08:01:44;15.30;99.90
1225;DHT22;602;48.000;7.840;2023-03-13T08:04:12;15.40;99.90
1225;DHT22;602;48.000;7.840;2023-03-13T08:06:39;15.60;99.90
1225;DHT22;602;48.000;7.840;2023-03-13T08:09:07;15.70;99.90
1225;DHT22;602;48.000;7.840;2023-03-13T08:11:34;16.00;99.90
1225;DHT22;602;48.000;7.840;2023-03-13T08:14:02;16.10;99.90
1225;DHT22;602;48.000;7.840;2023-03-13T08:16:31;16.20;99.90
1225;DHT22;602;48.000;7.840;2023-03-13T08:18:59;16.20;99.90
1225;DHT22;602;48.000;7.840;2023-03-13T08:21:30;16.20;99.90
1225;DHT22;602;48.000;7.840;2023-03-13T08:23:58;16.30;99.90
1225;DHT22;602;48.000;7.840;2023-03-13T08:26:27;16.40;99.90
1225;DHT22;602;48.000;7.840;2023-03-13T08:28:56;16.30;99.90
1225;DHT22;602;48.000;7.840;2023-03-13T08:31:27;16.40;99.90
1225;DHT22;602;48.000;7.840;2023-03-13T08:33:54;16.40;99.90
1225;DHT22;602;48.000;7.840;2023-03-13T08:36:23;16.50;99.90
1225;DHT22;602;48.000;7.840;2023-03-13T08:38:51;16.60;99.90
1225;DHT22;602;48.000;7.840;2023-03-13T08:41:20;16.70;99.90
1225;DHT22;602;48.000;7.840;2023-03-13T08:43:47;16.80;99.90
1225;DHT22;602;48.000;7.840;2023-03-13T08:46:14;16.80;99.90
1225;DHT22;602;48.000;7.840;2023-03-13T08:48:42;16.80;99.90
1225;DHT22;602;48.000;7.840;2023-03-13T08:51:12;16.90;99.90
1225;DHT22;602;48.000;7.840;2023-03-13T08:53:40;16.90;99.90
1225;DHT22;602;48.000;7.840;2023-03-13T08:56:08;16.90;99.90
1225;DHT22;602;48.000;7.840;2023-03-13T08:58:35;17.00;99.90
1225;DHT22;602;48.000;7.840;2023-03-13T09:01:04;17.10;99.90
1225;DHT22;602;48.000;7.840;2023-03-13T09:03:31;17.10;99.90
1225;DHT22;602;48.000;7.840;2023-03-13T09:06:00;17.00;99.90
1225;DHT22;602;48.000;7.840;2023-03-13T09:08:28;17.00;99.90
1225;DHT22;602;48.000;7.840;2023-03-13T09:10:56;17.00;99.90
1225;DHT22;602;48.000;7.840;2023-03-13T09:13:24;17.20;99.90
1225;DHT22;602;48.000;7.840;2023-03-13T09:15:55;17.40;99.90
1225;DHT22;602;48.000;7.840;2023-03-13T09:18:25;17.60;99.90
1225;DHT22;602;48.000;7.840;2023-03-13T09:20:52;17.70;99.90
1225;DHT22;602;48.000;7.840;2023-03-13T09:23:21;17.90;99.90
1225;DHT22;602;48.000;7.840;2023-03-13T09:25:48;18.20;99.90
1225;DHT22;602;48.000;7.840;2023-03-13T09:28:15;18.30;99.90
1225;DHT22;602;48.000;7.840;2023-03-13T09:30:42;18.50;99.90
1225;DHT22;602;48.000;7.840;2023-03-13T09:33:09;18.90;99.90
1225;DHT22;602;48.000;7.840;2023-03-13T09:35:37;19.20;99.90
1225;DHT22;602;48.000;7.840;2023-03-13T09:38:05;19.40;99.90
1225;DHT22;602;48.000;7.840;2023-03-13T09:40:37;19.60;99.90
1225;DHT22;602;48.000;7.840;2023-03-13T09:43:18;19.80;99.90
1225;DHT22;602;48.000;7.840;2023-03-13T09:45:48;20.10;99.90
1225;DHT22;602;48.000;7.840;2023-03-13T09:48:27;20.40;99.90
1225;DHT22;602;48.000;7.840;2023-03-13T09:51:00;20.40;99.90
1225;DHT22;602;48.000;7.840;2023-03-13T09:53:35;20.40;99.90
1225;DHT22;602;48.000;7.840;2023-03-13T09:56:12;20.50;99.90
1225;DHT22;602;48.000;7.840;2023-03-13T09:58:46;20.50;99.90
1225;DHT22;602;48.000;7.840;2023-03-13T10:01:17;20.40;99.90
1225;DHT22;602;48.000;7.840;2023-03-13T10:03:54;20.40;99.90
1225;DHT22;602;48.000;7.840;2023-03-13T10:06:24;20.30;99.90
1225;DHT22;602;48.000;7.840;2023-03-13T10:08:53;20.30;99.90
1225;DHT22;602;48.000;7.840;2023-03-13T10:11:29;20.40;99.90
1225;DHT22;602;48.000;7.840;2023-03-13T10:14:02;20.50;99.90
1225;DHT22;602;48.000;7.840;2023-03-13T10:16:39;20.70;99.90
1225;DHT22;602;48.000;7.840;2023-03-13T10:19:11;20.60;99.90
1225;DHT22;602;48.000;7.840;2023-03-13T10:21:41;20.70;99.90
1225;DHT22;602;48.000;7.840;2023-03-13T10:24:15;20.70;99.90
1225;DHT22;602;48.000;7.840;2023-03-13T10:26:44;20.90;99.90
1225;DHT22;602;48.000;7.840;2023-03-13T10:29:20;21.00;99.90
1225;DHT22;602;48.000;7.840;2023-03-13T10:31:53;21.00;99.90
1225;DHT22;602;48.000;7.840;2023-03-13T10:34:21;21.20;99.90
1225;DHT22;602;48.000;7.840;2023-03-13T10:36:49;21.20;99.90
1225;DHT22;602;48.000;7.840;2023-03-13T10:39:21;21.50;99.90
1225;DHT22;602;48.000;7.840;2023-03-13T10:41:52;21.60;99.90
1225;DHT22;602;48.000;7.840;2023-03-13T10:44:28;21.70;99.90
1225;DHT22;602;48.000;7.840;2023-03-13T10:46:59;21.80;99.90
1225;DHT22;602;48.000;7.840;2023-03-13T10:49:26;21.70;99.90
1225;DHT22;602;48.000;7.840;2023-03-13T10:51:54;21.90;99.90
1225;DHT22;602;48.000;7.840;2023-03-13T10:54:23;22.20;99.90
1225;DHT22;602;48.000;7.840;2023-03-13T10:57:08;22.40;99.90
1225;DHT22;602;48.000;7.840;2023-03-13T10:59:40;22.70;99.90
1225;DHT22;602;48.000;7.840;2023-03-13T11:02:20;22.90;99.90
1225;DHT22;602;48.000;7.840;2023-03-13T11:04:48;23.00;99.90
1225;DHT22;602;48.000;7.840;2023-03-13T11:07:21;23.20;99.90
1225;DHT22;602;48.000;7.840;2023-03-13T11:10:16;23.10;99.90
1225;DHT22;602;48.000;7.840;2023-03-13T11:12:49;23.40;99.90
1225;DHT22;602;48.000;7.840;2023-03-13T11:15:21;23.50;99.90
1225;DHT22;602;48.000;7.840;2023-03-13T11:17:53;23.80;99.90
1225;DHT22;602;48.000;7.840;2023-03-13T11:20:27;23.80;99.90
1225;DHT22;602;48.000;7.840;2023-03-13T11:23:06;24.00;99.90
1225;DHT22;602;48.000;7.840;2023-03-13T11:25:40;24.00;99.90
1225;DHT22;602;48.000;7.840;2023-03-13T11:28:19;24.40;99.90
1225;DHT22;602;48.000;7.840;2023-03-13T11:30:57;24.60;99.90
1225;DHT22;602;48.000;7.840;2023-03-13T11:33:30;24.80;99.90
1225;DHT22;602;48.000;7.840;2023-03-13T11:36:02;24.70;99.90
1225;DHT22;602;48.000;7.840;2023-03-13T11:38:35;24.80;99.90
1225;DHT22;602;48.000;7.840;2023-03-13T11:41:11;25.00;99.90
1225;DHT22;602;48.000;7.840;2023-03-13T11:43:49;25.20;99.90
1225;DHT22;602;48.000;7.840;2023-03-13T11:46:32;25.20;99.90
1225;DHT22;602;48.000;7.840;2023-03-13T11:49:24;25.30;99.90
1225;DHT22;602;48.000;7.840;2023-03-13T11:52:09;25.50;99.90
1225;DHT22;602;48.000;7.840;2023-03-13T11:54:56;25.40;99.90
1225;DHT22;602;48.000;7.840;2023-03-13T11:57:28;25.40;99.90
1225;DHT22;602;48.000;7.840;2023-03-13T12:00:17;25.40;99.90
1225;DHT22;602;48.000;7.840;2023-03-13T12:02:49;25.50;99.90
1225;DHT22;602;48.000;7.840;2023-03-13T12:05:18;25.60;99.90
1225;DHT22;602;48.000;7.840;2023-03-13T12:07:50;25.70;99.90
1225;DHT22;602;48.000;7.840;2023-03-13T12:10:21;25.80;99.90
1225;DHT22;602;48.000;7.840;2023-03-13T12:12:55;25.90;99.90
1225;DHT22;602;48.000;7.840;2023-03-13T12:15:28;25.70;99.90
1225;DHT22;602;48.000;7.840;2023-03-13T12:17:59;25.80;99.90
1225;DHT22;602;48.000;7.840;2023-03-13T12:20:32;26.00;99.90
1225;DHT22;602;48.000;7.840;2023-03-13T12:23:13;25.90;99.90
1225;DHT22;602;48.000;7.840;2023-03-13T12:25:45;25.90;99.90
1225;DHT22;602;48.000;7.840;2023-03-13T12:28:20;26.00;99.90
1225;DHT22;602;48.000;7.840;2023-03-13T12:30:55;26.00;99.90
1225;DHT22;602;48.000;7.840;2023-03-13T12:33:27;25.80;99.90
1225;DHT22;602;48.000;7.840;2023-03-13T12:36:01;25.80;99.90
1225;DHT22;602;48.000;7.840;2023-03-13T12:38:33;25.90;99.90
1225;DHT22;602;48.000;7.840;2023-03-13T12:41:11;26.00;99.90
1225;DHT22;602;48.000;7.840;2023-03-13T12:43:42;25.90;99.90
1225;DHT22;602;48.000;7.840;2023-03-13T12:46:28;25.90;99.90
1225;DHT22;602;48.000;7.840;2023-03-13T12:52:19;26.20;99.90
1225;DHT22;602;48.000;7.840;2023-03-13T12:55:12;26.30;99.90
1225;DHT22;602;48.000;7.840;2023-03-13T13:00:47;26.40;99.90
1225;DHT22;602;48.000;7.840;2023-03-13T13:03:23;26.40;99.90
1225;DHT22;602;48.000;7.840;2023-03-13T13:06:13;26.40;99.90
1225;DHT22;602;48.000;7.840;2023-03-13T13:08:42;26.30;99.90
1225;DHT22;602;48.000;7.840;2023-03-13T13:11:47;26.20;99.90
1225;DHT22;602;48.000;7.840;2023-03-13T13:17:19;25.80;99.90
1225;DHT22;602;48.000;7.840;2023-03-13T13:19:50;25.60;99.90
1225;DHT22;602;48.000;7.840;2023-03-13T13:22:45;25.50;99.90
1225;DHT22;602;48.000;7.840;2023-03-13T13:25:31;25.50;99.90
1225;DHT22;602;48.000;7.840;2023-03-13T13:28:23;25.60;99.90
1225;DHT22;602;48.000;7.840;2023-03-13T13:30:53;25.60;99.90
1225;DHT22;602;48.000;7.840;2023-03-13T13:33:39;25.50;99.90
1225;DHT22;602;48.000;7.840;2023-03-13T13:36:39;25.40;99.90
1225;DHT22;602;48.000;7.840;2023-03-13T13:39:36;25.40;99.90
1225;DHT22;602;48.000;7.840;2023-03-13T13:42:36;25.50;99.90
1225;DHT22;602;48.000;7.840;2023-03-13T13:45:20;25.50;99.90
1225;DHT22;602;48.000;7.840;2023-03-13T13:47:50;25.50;99.90
1225;DHT22;602;48.000;7.840;2023-03-13T13:50:37;25.50;99.90
1225;DHT22;602;48.000;7.840;2023-03-13T13:53:28;25.40;99.90
1225;DHT22;602;48.000;7.840;2023-03-13T13:55:56;25.30;99.90
1225;DHT22;602;48.000;7.840;2023-03-13T13:58:24;25.30;99.90
1225;DHT22;602;48.000;7.840;2023-03-13T14:00:54;25.20;99.90
1225;DHT22;602;48.000;7.840;2023-03-13T14:03:24;25.20;99.90
1225;DHT22;602;48.000;7.840;2023-03-13T14:05:53;25.00;99.90
1225;DHT22;602;48.000;7.840;2023-03-13T14:08:26;25.00;99.90
1225;DHT22;602;48.000;7.840;2023-03-13T14:11:06;25.00;99.90
1225;DHT22;602;48.000;7.840;2023-03-13T14:13:35;24.90;99.90
1225;DHT22;602;48.000;7.840;2023-03-13T14:16:20;25.00;99.90
1225;DHT22;602;48.000;7.840;2023-03-13T14:18:47;24.80;99.90
1225;DHT22;602;48.000;7.840;2023-03-13T14:21:20;24.70;99.90
1225;DHT22;602;48.000;7.840;2023-03-13T14:23:49;24.70;99.90
1225;DHT22;602;48.000;7.840;2023-03-13T14:26:18;24.60;99.90
1225;DHT22;602;48.000;7.840;2023-03-13T14:28:46;24.60;99.90
1225;DHT22;602;48.000;7.840;2023-03-13T14:31:26;24.60;99.90
1225;DHT22;602;48.000;7.840;2023-03-13T14:33:53;24.60;99.90
1225;DHT22;602;48.000;7.840;2023-03-13T14:36:20;24.70;99.90
1225;DHT22;602;48.000;7.840;2023-03-13T14:38:53;24.50;99.90
1225;DHT22;602;48.000;7.840;2023-03-13T14:41:29;24.60;99.90
1225;DHT22;602;48.000;7.840;2023-03-13T14:44:12;24.50;99.90
1225;DHT22;602;48.000;7.840;2023-03-13T14:46:41;24.70;99.90
1225;DHT22;602;48.000;7.840;2023-03-13T14:49:15;24.80;99.90
1225;DHT22;602;48.000;7.840;2023-03-13T14:51:43;24.70;99.90
1225;DHT22;602;48.000;7.840;2023-03-13T14:54:29;24.60;99.90
1225;DHT22;602;48.000;7.840;2023-03-13T14:57:20;24.70;99.90
1225;DHT22;602;48.000;7.840;2023-03-13T14:59:49;24.60;99.90
1225;DHT22;602;48.000;7.840;2023-03-13T15:02:20;24.50;99.90
1225;DHT22;602;48.000;7.840;2023-03-13T15:04:55;24.50;99.90
1225;DHT22;602;48.000;7.840;2023-03-13T15:07:26;24.40;99.90
1225;DHT22;602;48.000;7.840;2023-03-13T15:09:54;24.40;99.90
1225;DHT22;602;48.000;7.840;2023-03-13T15:12:22;24.40;99.90
1225;DHT22;602;48.000;7.840;2023-03-13T15:14:50;24.40;99.90
1225;DHT22;602;48.000;7.840;2023-03-13T15:17:19;24.30;99.90
1225;DHT22;602;48.000;7.840;2023-03-13T15:19:48;24.30;99.90
1225;DHT22;602;48.000;7.840;2023-03-13T15:22:16;24.30;99.90
1225;DHT22;602;48.000;7.840;2023-03-13T15:24:43;24.30;99.90
1225;DHT22;602;48.000;7.840;2023-03-13T15:27:22;24.30;99.90
1225;DHT22;602;48.000;7.840;2023-03-13T15:29:49;24.20;99.90
1225;DHT22;602;48.000;7.840;2023-03-13T15:32:22;24.20;99.90
1225;DHT22;602;48.000;7.840;2023-03-13T15:34:51;24.20;99.90
1225;DHT22;602;48.000;7.840;2023-03-13T15:37:18;24.20;99.90
1225;DHT22;602;48.000;7.840;2023-03-13T15:39:45;24.10;99.90
1225;DHT22;602;48.000;7.840;2023-03-13T15:42:12;24.10;99.90
1225;DHT22;602;48.000;7.840;2023-03-13T15:44:40;24.00;99.90
1225;DHT22;602;48.000;7.840;2023-03-13T15:47:09;24.00;99.90
1225;DHT22;602;48.000;7.840;2023-03-13T15:49:36;23.90;99.90
1225;DHT22;602;48.000;7.840;2023-03-13T15:52:08;23.90;99.90
1225;DHT22;602;48.000;7.840;2023-03-13T15:54:36;23.90;99.90
1225;DHT22;602;48.000;7.840;2023-03-13T15:57:03;23.90;99.90
1225;DHT22;602;48.000;7.840;2023-03-13T15:59:30;23.90;99.90
1225;DHT22;602;48.000;7.840;2023-03-13T16:01:58;23.70;99.90
1225;DHT22;602;48.000;7.840;2023-03-13T16:04:25;23.70;99.90
1225;DHT22;602;48.000;7.840;2023-03-13T16:06:52;23.70;99.90
1225;DHT22;602;48.000;7.840;2023-03-13T16:09:19;23.70;99.90
1225;DHT22;602;48.000;7.840;2023-03-13T16:11:46;23.60;99.90
1225;DHT22;602;48.000;7.840;2023-03-13T16:14:13;23.60;99.90
1225;DHT22;602;48.000;7.840;2023-03-13T16:16:39;23.60;99.90
1225;DHT22;602;48.000;7.840;2023-03-13T16:19:09;23.60;99.90
1225;DHT22;602;48.000;7.840;2023-03-13T16:21:36;23.50;99.90
1225;DHT22;602;48.000;7.840;2023-03-13T16:24:05;23.50;99.90
1225;DHT22;602;48.000;7.840;2023-03-13T16:26:32;23.60;99.90
1225;DHT22;602;48.000;7.840;2023-03-13T16:28:59;23.50;99.90
1225;DHT22;602;48.000;7.840;2023-03-13T16:31:28;23.40;99.90
1225;DHT22;602;48.000;7.840;2023-03-13T16:33:56;23.40;99.90
1225;DHT22;602;48.000;7.840;2023-03-13T16:36:26;23.40;99.90
1225;DHT22;602;48.000;7.840;2023-03-13T16:38:55;23.30;99.60
1225;DHT22;602;48.000;7.840;2023-03-13T16:41:23;23.30;99.90
1225;DHT22;602;48.000;7.840;2023-03-13T16:43:51;23.30;99.20
1225;DHT22;602;48.000;7.840;2023-03-13T16:46:19;23.30;99.40
1225;DHT22;602;48.000;7.840;2023-03-13T16:48:47;23.20;99.60